createdAt,value
2019-03-12T00:00:49.271Z,100516.78
2019-03-12T00:03:52.851Z,100519.88
2019-03-12T00:06:56.316Z,100534.53
2019-03-12T00:09:59.821Z,100536.34
2019-03-12T00:13:04.349Z,100557.03
2019-03-12T00:16:07.841Z,100570.27
2019-03-12T00:19:11.376Z,100580.02
2019-03-12T00:22:15.875Z,100587.09
2019-03-12T00:25:21.420Z,100592.39
2019-03-12T00:28:24.841Z,100595.03
2019-03-12T00:31:28.277Z,100595.49
2019-03-12T00:34:31.728Z,100593.34
2019-03-12T00:37:35.246Z,100600.41
2019-03-12T00:40:39.746Z,100603.55
2019-03-12T00:43:43.242Z,100608.36
2019-03-12T00:46:46.772Z,100608.45
2019-03-12T00:49:50.285Z,100611.09
2019-03-12T00:52:55.819Z,100619.03
2019-03-12T00:55:59.303Z,100619.03
2019-03-12T00:59:02.898Z,100624.91
2019-03-12T01:02:06.519Z,100629.24
2019-03-12T01:05:10.017Z,100634.91
2019-03-12T01:08:13.504Z,100640.20
2019-03-12T01:11:17.006Z,100640.78
2019-03-12T01:14:20.520Z,100642.56
2019-03-12T01:17:24.012Z,100644.75
2019-03-12T01:20:27.508Z,100654.93
2019-03-12T01:23:31.023Z,100657.58
2019-03-12T01:26:34.845Z,100650.22
2019-03-12T01:29:38.532Z,100662.50
2019-03-12T01:32:41.949Z,100654.19
2019-03-12T01:35:45.424Z,100658.24
2019-03-12T01:38:48.912Z,100660.97
2019-03-12T01:41:52.356Z,100671.94
2019-03-12T01:44:55.825Z,100677.72
2019-03-12T01:48:00.498Z,100689.22
2019-03-12T01:51:03.956Z,100699.26
2019-03-12T01:54:07.481Z,100702.53
2019-03-12T01:57:10.975Z,100714.84
2019-03-12T02:00:16.099Z,100713.98
2019-03-12T02:03:19.662Z,100713.12
2019-03-12T02:06:23.097Z,100711.34
2019-03-12T02:09:26.599Z,100714.07
2019-03-12T02:12:31.131Z,100710.10
2019-03-12T02:15:34.640Z,100718.98
2019-03-12T02:18:38.132Z,100733.55
2019-03-12T02:21:41.635Z,100735.78
2019-03-12T02:24:52.554Z,100739.30
2019-03-12T02:27:51.501Z,100749.42
2019-03-12T02:30:54.998Z,100752.06
2019-03-12T02:33:58.518Z,100752.98
2019-03-12T02:37:02.024Z,100756.58
2019-03-12T02:40:07.047Z,100756.58
2019-03-12T02:46:19.899Z,100769.80
2019-03-12T02:49:23.322Z,100771.63
2019-03-12T02:52:27.905Z,100774.34
2019-03-12T02:55:31.399Z,100779.06
2019-03-12T02:58:35.943Z,100778.23
2019-03-12T03:01:40.460Z,100777.74
2019-03-12T03:04:43.986Z,100786.63
2019-03-12T03:07:53.839Z,100795.52
2019-03-12T03:10:57.322Z,100806.56
2019-03-12T03:14:00.829Z,100804.37
2019-03-12T03:17:04.826Z,100818.92
2019-03-12T03:20:08.834Z,100820.24
2019-03-12T03:23:12.345Z,100817.59
2019-03-12T03:26:16.870Z,100819.41
2019-03-12T03:29:20.318Z,100827.72
2019-03-12T03:32:23.872Z,100824.21
2019-03-12T03:35:27.303Z,100823.84
2019-03-12T03:38:30.773Z,100828.19
2019-03-12T03:41:35.926Z,100827.81
2019-03-12T03:44:39.470Z,100832.15
2019-03-12T03:47:42.952Z,100829.13
2019-03-12T03:50:46.422Z,100829.13
2019-03-12T03:53:49.924Z,100830.08
2019-03-12T03:56:53.507Z,100827.43
2019-03-12T03:59:58.046Z,100824.78
2019-03-12T04:03:01.555Z,100816.84
2019-03-12T04:06:05.085Z,100821.19
2019-03-12T04:09:08.552Z,100832.72
2019-03-12T04:12:12.041Z,100828.75
2019-03-12T04:15:15.573Z,100824.38
2019-03-12T04:18:19.073Z,100831.86
2019-03-12T04:21:22.698Z,100826.11
2019-03-12T04:24:26.268Z,100830.08
2019-03-12T04:27:29.753Z,100829.26
2019-03-12T04:30:33.260Z,100829.26
2019-03-12T04:34:14.142Z,100828.80
2019-03-12T04:37:17.741Z,100825.30
2019-03-12T04:40:21.257Z,100838.14
2019-03-12T04:43:24.756Z,100851.75
2019-03-12T04:46:28.243Z,100842.57
2019-03-12T04:49:31.776Z,100843.44
2019-03-12T04:52:35.236Z,100854.02
2019-03-12T04:55:38.751Z,100854.97
2019-03-12T04:58:42.270Z,100856.75
2019-03-12T05:01:45.753Z,100855.88
2019-03-12T05:04:49.445Z,100858.06
2019-03-12T05:07:52.974Z,100854.97
2019-03-12T05:10:56.467Z,100850.59
2019-03-12T05:14:24.906Z,100841.33
2019-03-12T05:17:31.816Z,100826.77
2019-03-12T05:20:35.441Z,100837.36
2019-03-12T05:23:38.944Z,100841.81
2019-03-12T05:26:43.458Z,100851.53
2019-03-12T05:29:46.961Z,100851.16
2019-03-12T05:32:50.463Z,100854.18
2019-03-12T05:35:53.969Z,100857.77
2019-03-12T05:38:57.475Z,100856.83
2019-03-12T05:42:00.889Z,100855.50
2019-03-12T05:45:04.518Z,100867.41
2019-03-12T05:48:07.963Z,100876.66
2019-03-12T05:51:11.465Z,100881.50
2019-03-12T05:54:16.008Z,100879.31
2019-03-12T05:57:19.515Z,100884.98
2019-03-12T06:00:24.284Z,100889.52
2019-03-12T06:03:27.736Z,100895.64
2019-03-12T06:06:31.224Z,100907.09
2019-03-12T06:09:34.740Z,100899.94
2019-03-12T06:12:38.242Z,100899.16
2019-03-12T06:15:41.732Z,100905.31
2019-03-12T06:18:45.228Z,100906.14
2019-03-12T06:21:48.737Z,100900.48
2019-03-12T06:24:52.263Z,100897.83
2019-03-12T06:27:55.842Z,100895.56
2019-03-12T06:31:17.438Z,100895.19
2019-03-12T06:34:40.820Z,100890.35
2019-03-12T06:38:06.126Z,100897.45
2019-03-12T06:41:18.870Z,100892.92
2019-03-12T06:44:40.348Z,100893.86
2019-03-12T06:47:59.151Z,100898.70
2019-03-12T06:51:11.660Z,100895.19
2019-03-12T06:54:34.204Z,100899.23
2019-03-12T06:58:16.740Z,100893.00
2019-03-12T07:01:39.277Z,100901.80
2019-03-12T07:04:56.125Z,100896.51
2019-03-12T07:08:09.310Z,100892.92
2019-03-12T07:11:30.508Z,100887.25
2019-03-12T07:14:56.065Z,100892.92
2019-03-12T07:18:10.890Z,100889.52
2019-03-12T07:21:33.467Z,100896.51
2019-03-12T07:25:02.041Z,100889.52
2019-03-12T07:28:12.617Z,100887.70
2019-03-12T07:31:28.992Z,100884.23
2019-03-12T07:34:44.930Z,100897.45
2019-03-12T07:38:07.465Z,100894.40
2019-03-12T07:41:30.383Z,100894.81
2019-03-12T07:44:47.852Z,100889.89
2019-03-12T07:48:19.283Z,100885.06
2019-03-12T07:51:40.537Z,100888.57
2019-03-12T07:55:01.123Z,100887.25
2019-03-12T07:58:14.244Z,100890.27
2019-03-12T08:01:36.903Z,100882.41
2019-03-12T08:04:51.014Z,100883.66
2019-03-12T08:08:19.718Z,100874.40
2019-03-12T08:11:55.650Z,100870.13
2019-03-12T08:15:22.595Z,100883.28
2019-03-12T08:18:35.713Z,100879.31
2019-03-12T08:22:04.087Z,100870.68
2019-03-12T08:25:25.586Z,100858.23
2019-03-12T08:28:38.519Z,100868.48
2019-03-12T08:32:13.379Z,100861.42
2019-03-12T08:35:35.915Z,100861.83
2019-03-12T08:38:49.855Z,100861.25
2019-03-12T08:42:09.116Z,100862.04
2019-03-12T08:45:38.310Z,100860.55
2019-03-12T08:48:59.917Z,100863.95
2019-03-12T08:52:12.856Z,100855.09
2019-03-12T08:55:34.099Z,100856.80
2019-03-12T08:59:02.515Z,100862.01
2019-03-12T09:02:37.063Z,100853.13
2019-03-12T09:06:08.755Z,100856.55
2019-03-12T09:09:43.425Z,100853.03
2019-03-12T09:13:08.937Z,100843.41
2019-03-12T09:16:29.200Z,100842.29
2019-03-12T09:19:52.764Z,100836.05
2019-03-12T09:23:06.164Z,100837.78
2019-03-12T09:26:27.650Z,100833.40
2019-03-12T09:29:53.098Z,100840.42
2019-03-12T09:33:07.908Z,100832.86
2019-03-12T09:36:24.411Z,100829.09
2019-03-12T09:39:46.970Z,100834.39
2019-03-12T09:43:03.591Z,100834.77
2019-03-12T09:46:32.994Z,100824.95
2019-03-12T09:49:54.118Z,100824.58
2019-03-12T09:53:03.045Z,100827.03
2019-03-12T09:56:13.179Z,100821.73
2019-03-12T09:59:32.776Z,100822.14
2019-03-12T10:02:46.507Z,100817.22
2019-03-12T10:06:04.912Z,100806.09
2019-03-12T10:09:18.798Z,100803.45
2019-03-12T10:12:45.561Z,100804.19
2019-03-12T10:16:26.696Z,100804.56
2019-03-12T10:19:50.406Z,100800.59
2019-03-12T10:23:00.545Z,100796.08
2019-03-12T10:26:12.086Z,100794.38
2019-03-12T10:29:46.792Z,100785.03
2019-03-12T10:33:01.914Z,100789.00
2019-03-12T10:36:25.382Z,100776.59
2019-03-12T10:40:23.150Z,100770.06
2019-03-12T10:43:47.914Z,100760.71
2019-03-12T10:46:58.074Z,100746.38
2019-03-12T10:50:02.585Z,100747.22
2019-03-12T10:53:06.383Z,100737.48
2019-03-12T10:56:09.814Z,100736.16
2019-03-12T10:59:13.293Z,100727.84
2019-03-12T11:02:16.777Z,100725.00
2019-03-12T11:05:20.287Z,100721.52
2019-03-12T11:08:23.778Z,100713.95
2019-03-12T11:11:28.322Z,100713.08
2019-03-12T11:14:31.850Z,100704.22
2019-03-12T11:17:48.444Z,100709.02
2019-03-12T11:20:40.774Z,100699.20
2019-03-12T11:23:44.468Z,100702.72
2019-03-12T11:26:48.103Z,100700.81
2019-03-12T11:29:51.699Z,100693.91
2019-03-12T11:32:55.388Z,100688.16
2019-03-12T11:35:59.000Z,100678.77
2019-03-12T11:39:04.811Z,100677.84
2019-03-12T11:42:08.248Z,100669.90
2019-03-12T11:45:18.645Z,100667.34
2019-03-12T11:48:20.525Z,100654.30
2019-03-12T11:51:24.121Z,100660.91
2019-03-12T11:54:28.724Z,100659.12
2019-03-12T11:57:32.362Z,100649.27
2019-03-12T12:00:41.188Z,100642.56
2019-03-12T12:03:44.645Z,100634.63
2019-03-12T12:06:48.165Z,100629.05
2019-03-12T12:09:51.676Z,100611.56
2019-03-12T12:12:56.159Z,100603.80
2019-03-12T12:16:00.713Z,100607.31
2019-03-12T12:19:04.208Z,100596.72
2019-03-12T12:22:07.697Z,100593.98
2019-03-12T12:25:11.939Z,100585.08
2019-03-12T12:28:15.518Z,100585.45
2019-03-12T12:31:19.019Z,100584.71
2019-03-12T12:34:22.649Z,100573.44
2019-03-12T12:37:26.214Z,100569.92
2019-03-12T12:40:29.818Z,100568.60
2019-03-12T12:43:33.428Z,100560.09
2019-03-12T12:46:37.083Z,100556.93
2019-03-12T12:49:40.515Z,100551.05
2019-03-12T12:52:44.138Z,100540.08
2019-03-12T12:55:47.613Z,100534.78
2019-03-12T12:58:51.128Z,100518.20
2019-03-12T13:01:54.621Z,100505.82
2019-03-12T13:04:58.175Z,100489.73
2019-03-12T13:08:01.654Z,100490.10
2019-03-12T13:11:05.125Z,100479.68
2019-03-12T13:14:08.651Z,100475.15
2019-03-12T13:17:12.076Z,100461.21
2019-03-12T13:20:15.626Z,100465.09
2019-03-12T13:23:19.173Z,100456.95
2019-03-12T13:26:22.614Z,100462.81
2019-03-12T13:29:26.078Z,100448.61
2019-03-12T13:32:29.880Z,100441.29
2019-03-12T13:35:33.507Z,100443.28
2019-03-12T13:38:45.702Z,100441.39
2019-03-12T13:41:42.931Z,100439.11
2019-03-12T13:44:46.774Z,100428.94
2019-03-12T13:47:50.338Z,100419.20
2019-03-12T13:50:54.082Z,100415.58
2019-03-12T13:53:57.737Z,100404.78
2019-03-12T13:57:01.509Z,100398.91
2019-03-12T14:00:09.030Z,100389.53
2019-03-12T14:03:20.764Z,100381.48
2019-03-12T14:06:24.291Z,100377.27
2019-03-12T14:09:27.786Z,100378.02
2019-03-12T14:12:31.341Z,100370.94
2019-03-12T14:15:34.854Z,100363.44
2019-03-12T14:18:39.418Z,100347.54
2019-03-12T14:21:43.889Z,100343.82
2019-03-12T14:24:48.582Z,100343.36
2019-03-12T14:27:53.382Z,100334.80
2019-03-12T14:30:58.075Z,100323.98
2019-03-12T14:34:01.728Z,100334.39
2019-03-12T14:37:05.638Z,100329.84
2019-03-12T14:40:09.387Z,100304.08
2019-03-12T14:43:13.199Z,100309.57
2019-03-12T14:46:16.887Z,100303.30
2019-03-12T14:49:20.623Z,100294.73
2019-03-12T14:52:27.793Z,100290.19
2019-03-12T14:55:31.344Z,100282.13
2019-03-12T14:58:36.228Z,100273.95
2019-03-12T15:01:40.322Z,100267.22
2019-03-12T15:04:44.102Z,100259.88
2019-03-12T15:07:48.910Z,100254.47
2019-03-12T15:10:52.598Z,100250.84
2019-03-12T15:13:56.271Z,100237.48
2019-03-12T15:17:00.159Z,100235.00
2019-03-12T15:20:03.908Z,100224.50
2019-03-12T15:23:08.856Z,100218.22
2019-03-12T15:26:14.571Z,100214.39
2019-03-12T15:29:18.397Z,100206.53
2019-03-12T15:32:22.043Z,100193.63
2019-03-12T15:35:27.816Z,100185.81
2019-03-12T15:38:31.716Z,100180.75
2019-03-12T15:41:36.442Z,100183.16
2019-03-12T15:44:41.080Z,100177.24
2019-03-12T15:47:44.804Z,100174.23
2019-03-12T15:50:48.416Z,100164.95
2019-03-12T15:53:53.199Z,100162.65
2019-03-12T15:56:56.622Z,100166.27
2019-03-12T16:00:00.512Z,100161.44
2019-03-12T16:03:05.145Z,100154.55
2019-03-12T16:06:09.094Z,100152.87
2019-03-12T16:09:12.775Z,100147.56
2019-03-12T16:12:16.338Z,100144.16
2019-03-12T16:15:20.106Z,100141.15
2019-03-12T16:18:24.796Z,100129.79
2019-03-12T16:21:28.446Z,100123.52
2019-03-12T16:24:32.183Z,100122.80
2019-03-12T16:27:37.702Z,100118.82
2019-03-12T16:30:41.385Z,100096.96
2019-03-12T16:33:45.177Z,100089.12
2019-03-12T16:36:49.209Z,100092.73
2019-03-12T16:39:52.960Z,100085.75
2019-03-12T16:42:57.853Z,100084.06
2019-03-12T16:46:03.656Z,100072.70
2019-03-12T16:49:07.388Z,100075.00
2019-03-12T16:52:11.033Z,100063.18
2019-03-12T16:55:14.858Z,100058.70
2019-03-12T16:58:18.553Z,100049.06
2019-03-12T17:01:22.198Z,100042.08
2019-03-12T17:04:25.843Z,100035.09
2019-03-12T17:07:29.472Z,100026.27
2019-03-12T17:10:33.057Z,100017.58
2019-03-12T17:13:36.692Z,100007.08
2019-03-12T17:16:40.452Z,99999.23
2019-03-12T17:19:44.184Z,99986.05
2019-03-12T17:22:47.770Z,99977.74
2019-03-12T17:25:53.499Z,99969.32
2019-03-12T17:28:58.161Z,99968.11
2019-03-12T17:32:01.756Z,99960.62
2019-03-12T17:35:07.602Z,99956.17
2019-03-12T17:38:11.523Z,99942.92
2019-03-12T17:41:17.465Z,99942.92
2019-03-12T17:44:21.211Z,99942.56
2019-03-12T17:47:24.825Z,99937.61
2019-03-12T17:50:28.427Z,99934.11
2019-03-12T17:53:32.221Z,99926.27
2019-03-12T17:56:35.851Z,99917.37
2019-03-12T17:59:39.584Z,99912.07
2019-03-12T18:02:43.251Z,99907.13
2019-03-12T18:05:46.868Z,99905.05
2019-03-12T18:08:50.534Z,99901.69
2019-03-12T18:11:54.078Z,99895.06
2019-03-12T18:14:59.002Z,99889.38
2019-03-12T18:18:02.722Z,99886.72
2019-03-12T18:21:08.304Z,99871.43
2019-03-12T18:24:11.909Z,99867.45
2019-03-12T18:27:17.479Z,99864.80
2019-03-12T18:30:21.082Z,99859.14
2019-03-12T18:33:24.619Z,99849.48
2019-03-12T18:36:29.309Z,99842.85
2019-03-12T18:39:33.034Z,99827.92
2019-03-12T18:42:36.562Z,99822.61
2019-03-12T18:45:42.280Z,99812.48
2019-03-12T18:48:45.958Z,99807.18
2019-03-12T18:51:51.518Z,99798.76
2019-03-12T18:54:55.047Z,99787.91
2019-03-12T18:57:58.996Z,99795.02
2019-03-12T19:01:13.311Z,99774.55
2019-03-12T19:04:17.035Z,99765.50
2019-03-12T19:07:20.589Z,99757.78
2019-03-12T19:10:25.258Z,99750.80
2019-03-12T19:13:28.980Z,99747.77
2019-03-12T19:16:32.613Z,99741.64
2019-03-12T19:19:36.511Z,99725.74
2019-03-12T19:22:40.091Z,99713.81
2019-03-12T19:25:49.872Z,99703.68
2019-03-12T19:28:53.740Z,99694.91
2019-03-12T19:32:16.346Z,99685.24
2019-03-12T19:35:20.345Z,99677.67
2019-03-12T19:38:23.975Z,99663.56
2019-03-12T19:41:27.736Z,99650.66
2019-03-12T19:44:31.360Z,99646.69
2019-03-12T19:47:36.151Z,99624.66
2019-03-12T19:50:39.726Z,99611.88
2019-03-12T19:53:43.325Z,99609.70
2019-03-12T19:56:47.015Z,99597.77
2019-03-12T19:59:50.631Z,99588.38
2019-03-12T20:03:09.530Z,99573.92
2019-03-12T20:06:04.117Z,99577.30
2019-03-12T20:09:09.652Z,99566.82
2019-03-12T20:12:55.002Z,99549.72
2019-03-12T20:16:38.213Z,99533.81
2019-03-12T20:20:22.367Z,99527.53
2019-03-12T20:24:12.172Z,99515.26
2019-03-12T20:28:01.562Z,99508.04
2019-03-12T20:31:45.726Z,99500.78
2019-03-12T20:35:27.094Z,99489.95
2019-03-12T20:39:13.121Z,99477.68
2019-03-12T20:42:55.241Z,99459.25
2019-03-12T20:46:35.226Z,99464.91
2019-03-12T20:50:16.528Z,99465.15
2019-03-12T20:54:07.049Z,99445.27
2019-03-12T20:57:51.146Z,99440.95
2019-03-12T21:01:21.946Z,99441.92
2019-03-12T21:04:53.640Z,99432.77
2019-03-12T21:08:33.648Z,99427.59
2019-03-12T21:12:12.846Z,99425.54
2019-03-12T21:16:01.871Z,99415.92
2019-03-12T21:19:45.392Z,99421.22
2019-03-12T21:23:26.365Z,99407.11
2019-03-12T21:26:55.180Z,99396.29
2019-03-12T21:29:57.563Z,99391.97
2019-03-12T21:33:01.054Z,99383.64
2019-03-12T21:36:07.997Z,99374.36
2019-03-12T21:39:09.898Z,99370.17
2019-03-12T21:42:13.337Z,99361.48
2019-03-12T21:45:16.930Z,99341.50
2019-03-12T21:48:20.403Z,99347.77
2019-03-12T21:51:23.905Z,99343.10
2019-03-12T21:54:27.369Z,99333.83
2019-03-12T21:57:30.856Z,99326.01
2019-03-12T22:00:34.302Z,99320.70
2019-03-12T22:03:38.031Z,99316.86
2019-03-12T22:06:41.508Z,99311.18
2019-03-12T22:09:45.118Z,99310.23
2019-03-12T22:12:48.635Z,99296.27
2019-03-12T22:15:52.125Z,99291.95
2019-03-12T22:18:56.639Z,99292.29
2019-03-12T22:22:13.090Z,99281.47
2019-03-12T22:25:16.663Z,99263.05
2019-03-12T22:28:20.273Z,99244.86
2019-03-12T22:31:23.744Z,99240.66
2019-03-12T22:34:30.054Z,99237.17
2019-03-12T22:37:32.608Z,99231.52
2019-03-12T22:40:36.334Z,99230.80
2019-03-12T22:43:39.827Z,99227.80
2019-03-12T22:46:43.306Z,99215.75
2019-03-12T22:49:46.800Z,99204.69
2019-03-12T22:52:50.305Z,99197.47
2019-03-12T22:55:53.811Z,99195.67
2019-03-12T22:58:59.360Z,99186.28
2019-03-12T23:02:04.912Z,99175.09
2019-03-12T23:05:08.825Z,99170.03
2019-03-12T23:08:13.338Z,99164.49
2019-03-12T23:11:17.888Z,99159.20
2019-03-12T23:14:21.318Z,99143.30
2019-03-12T23:17:24.889Z,99154.16
2019-03-12T23:20:28.317Z,99158.50
2019-03-12T23:23:31.770Z,99148.86
2019-03-12T23:26:35.368Z,99142.74
2019-03-12T23:29:39.900Z,99129.63
2019-03-12T23:32:43.395Z,99120.36
2019-03-12T23:35:46.901Z,99133.60
2019-03-12T23:38:51.456Z,99129.28
2019-03-12T23:41:54.925Z,99120.48
2019-03-12T23:45:00.489Z,99127.59
2019-03-12T23:48:06.015Z,99120.62
2019-03-12T23:51:09.516Z,99108.70
2019-03-12T23:54:12.946Z,99100.41
2019-03-12T23:57:16.565Z,99098.71
